sensor_id;sensor_type;location;lat;lon;timestamp;temperature;humidity
49777;DHT22;35673;51.482;7.436;2023-02-15T00:01:36;5.30;86.30
49777;DHT22;35673;51.482;7.436;2023-02-15T00:04:02;5.30;86.50
49777;DHT22;35673;51.482;7.436;2023-02-15T00:06:28;5.30;86.50
49777;DHT22;35673;51.482;7.436;2023-02-15T00:08:54;5.30;86.40
49777;DHT22;35673;51.482;7.436;2023-02-15T00:11:20;5.30;86.40
49777;DHT22;35673;51.482;7.436;2023-02-15T00:14:14;5.30;86.80
49777;DHT22;35673;51.482;7.436;2023-02-15T00:16:40;5.20;87.20
49777;DHT22;35673;51.482;7.436;2023-02-15T00:19:07;5.20;87.30
49777;DHT22;35673;51.482;7.436;2023-02-15T00:21:33;5.20;87.10
49777;DHT22;35673;51.482;7.436;2023-02-15T00:23:59;5.20;87.10
49777;DHT22;35673;51.482;7.436;2023-02-15T00:26:25;5.10;87.10
49777;DHT22;35673;51.482;7.436;2023-02-15T00:28:51;5.10;87.50
49777;DHT22;35673;51.482;7.436;2023-02-15T00:31:17;5.20;87.30
49777;DHT22;35673;51.482;7.436;2023-02-15T00:33:43;5.10;87.10
49777;DHT22;35673;51.482;7.436;2023-02-15T00:36:09;5.10;87.50
49777;DHT22;35673;51.482;7.436;2023-02-15T00:38:35;5.10;87.40
49777;DHT22;35673;51.482;7.436;2023-02-15T00:41:01;5.00;87.20
49777;DHT22;35673;51.482;7.436;2023-02-15T00:43:27;5.00;87.60
49777;DHT22;35673;51.482;7.436;2023-02-15T00:45:53;5.00;87.80
49777;DHT22;35673;51.482;7.436;2023-02-15T00:48:19;4.90;87.30
49777;DHT22;35673;51.482;7.436;2023-02-15T00:50:45;4.90;87.00
49777;DHT22;35673;51.482;7.436;2023-02-15T00:53:11;4.90;87.70
49777;DHT22;35673;51.482;7.436;2023-02-15T00:55:37;4.80;87.90
49777;DHT22;35673;51.482;7.436;2023-02-15T00:58:05;4.80;88.40
49777;DHT22;35673;51.482;7.436;2023-02-15T01:00:30;4.80;88.10
49777;DHT22;35673;51.482;7.436;2023-02-15T01:02:56;4.80;88.90
49777;DHT22;35673;51.482;7.436;2023-02-15T01:05:21;4.70;89.00
49777;DHT22;35673;51.482;7.436;2023-02-15T01:07:47;4.80;89.00
49777;DHT22;35673;51.482;7.436;2023-02-15T01:10:12;4.80;89.00
49777;DHT22;35673;51.482;7.436;2023-02-15T01:12:38;4.80;89.00
49777;DHT22;35673;51.482;7.436;2023-02-15T01:15:03;4.70;88.90
49777;DHT22;35673;51.482;7.436;2023-02-15T01:17:30;4.70;88.60
49777;DHT22;35673;51.482;7.436;2023-02-15T01:19:55;4.70;88.50
49777;DHT22;35673;51.482;7.436;2023-02-15T01:22:21;4.60;89.30
49777;DHT22;35673;51.482;7.436;2023-02-15T01:24:48;4.60;88.60
49777;DHT22;35673;51.482;7.436;2023-02-15T01:27:14;4.50;88.00
49777;DHT22;35673;51.482;7.436;2023-02-15T01:29:39;4.40;88.50
49777;DHT22;35673;51.482;7.436;2023-02-15T01:32:05;4.40;89.00
49777;DHT22;35673;51.482;7.436;2023-02-15T01:34:30;4.40;89.50
49777;DHT22;35673;51.482;7.436;2023-02-15T01:36:56;4.40;90.20
49777;DHT22;35673;51.482;7.436;2023-02-15T01:39:21;4.40;89.80
49777;DHT22;35673;51.482;7.436;2023-02-15T01:41:47;4.40;90.00
49777;DHT22;35673;51.482;7.436;2023-02-15T01:46:56;4.40;90.10
49777;DHT22;35673;51.482;7.436;2023-02-15T01:49:22;4.40;90.40
49777;DHT22;35673;51.482;7.436;2023-02-15T01:51:48;4.40;90.40
49777;DHT22;35673;51.482;7.436;2023-02-15T01:54:27;4.40;90.20
49777;DHT22;35673;51.482;7.436;2023-02-15T01:56:54;4.30;89.90
49777;DHT22;35673;51.482;7.436;2023-02-15T01:59:21;4.30;89.80
49777;DHT22;35673;51.482;7.436;2023-02-15T02:01:48;4.30;89.80
49777;DHT22;35673;51.482;7.436;2023-02-15T02:04:16;4.30;90.20
49777;DHT22;35673;51.482;7.436;2023-02-15T02:06:43;4.20;90.20
49777;DHT22;35673;51.482;7.436;2023-02-15T02:09:11;4.10;91.00
49777;DHT22;35673;51.482;7.436;2023-02-15T02:11:38;3.80;91.50
49777;DHT22;35673;51.482;7.436;2023-02-15T02:14:04;3.60;91.10
49777;DHT22;35673;51.482;7.436;2023-02-15T02:22:01;3.80;91.20
49777;DHT22;35673;51.482;7.436;2023-02-15T02:34:55;3.70;91.40
49777;DHT22;35673;51.482;7.436;2023-02-15T02:39:54;3.80;91.10
49777;DHT22;35673;51.482;7.436;2023-02-15T02:44:50;3.80;91.00
49777;DHT22;35673;51.482;7.436;2023-02-15T02:47:23;3.80;91.00
49777;DHT22;35673;51.482;7.436;2023-02-15T02:49:58;3.80;91.20
49777;DHT22;35673;51.482;7.436;2023-02-15T02:55:06;3.80;91.00
49777;DHT22;35673;51.482;7.436;2023-02-15T02:57:33;3.80;90.90
49777;DHT22;35673;51.482;7.436;2023-02-15T02:59:59;3.80;90.90
49777;DHT22;35673;51.482;7.436;2023-02-15T03:02:29;3.80;90.90
49777;DHT22;35673;51.482;7.436;2023-02-15T03:05:00;3.70;90.80
49777;DHT22;35673;51.482;7.436;2023-02-15T03:07:29;3.70;91.00
49777;DHT22;35673;51.482;7.436;2023-02-15T03:09:56;3.70;90.80
49777;DHT22;35673;51.482;7.436;2023-02-15T03:12:32;3.60;91.00
49777;DHT22;35673;51.482;7.436;2023-02-15T03:17:34;3.50;91.30
49777;DHT22;35673;51.482;7.436;2023-02-15T03:20:19;3.50;91.20
49777;DHT22;35673;51.482;7.436;2023-02-15T03:22:47;3.50;91.10
49777;DHT22;35673;51.482;7.436;2023-02-15T03:25:19;3.50;91.00
49777;DHT22;35673;51.482;7.436;2023-02-15T03:27:47;3.50;91.20
49777;DHT22;35673;51.482;7.436;2023-02-15T03:30:14;3.50;91.40
49777;DHT22;35673;51.482;7.436;2023-02-15T03:32:40;3.50;91.10
49777;DHT22;35673;51.482;7.436;2023-02-15T03:35:08;3.40;91.30
49777;DHT22;35673;51.482;7.436;2023-02-15T03:42:58;3.40;91.70
49777;DHT22;35673;51.482;7.436;2023-02-15T03:45:26;3.40;91.90
49777;DHT22;35673;51.482;7.436;2023-02-15T03:47:52;3.40;92.10
49777;DHT22;35673;51.482;7.436;2023-02-15T03:50:24;3.40;92.40
49777;DHT22;35673;51.482;7.436;2023-02-15T03:53:10;3.40;92.20
49777;DHT22;35673;51.482;7.436;2023-02-15T03:55:37;3.40;91.50
49777;DHT22;35673;51.482;7.436;2023-02-15T03:58:03;3.40;91.70
49777;DHT22;35673;51.482;7.436;2023-02-15T04:00:52;3.30;91.60
49777;DHT22;35673;51.482;7.436;2023-02-15T04:03:39;3.30;91.30
49777;DHT22;35673;51.482;7.436;2023-02-15T04:06:06;3.20;91.50
49777;DHT22;35673;51.482;7.436;2023-02-15T04:08:31;3.20;91.60
49777;DHT22;35673;51.482;7.436;2023-02-15T04:11:16;3.20;91.80
49777;DHT22;35673;51.482;7.436;2023-02-15T04:13:42;3.10;91.70
49777;DHT22;35673;51.482;7.436;2023-02-15T04:16:07;3.10;91.80
49777;DHT22;35673;51.482;7.436;2023-02-15T04:18:34;3.10;91.80
49777;DHT22;35673;51.482;7.436;2023-02-15T04:21:19;3.10;92.20
49777;DHT22;35673;51.482;7.436;2023-02-15T04:24:03;3.10;91.90
49777;DHT22;35673;51.482;7.436;2023-02-15T04:26:47;3.10;92.10
49777;DHT22;35673;51.482;7.436;2023-02-15T04:29:14;3.10;92.10
49777;DHT22;35673;51.482;7.436;2023-02-15T04:31:40;3.10;92.40
49777;DHT22;35673;51.482;7.436;2023-02-15T04:34:05;3.10;92.10
49777;DHT22;35673;51.482;7.436;2023-02-15T04:36:31;3.10;92.50
49777;DHT22;35673;51.482;7.436;2023-02-15T04:38:56;3.10;92.30
49777;DHT22;35673;51.482;7.436;2023-02-15T04:41:22;3.00;92.50
49777;DHT22;35673;51.482;7.436;2023-02-15T04:43:47;3.00;92.60
49777;DHT22;35673;51.482;7.436;2023-02-15T04:46:13;3.00;92.40
49777;DHT22;35673;51.482;7.436;2023-02-15T04:48:38;3.00;92.70
49777;DHT22;35673;51.482;7.436;2023-02-15T04:51:07;2.90;91.80
49777;DHT22;35673;51.482;7.436;2023-02-15T04:53:33;2.80;92.30
49777;DHT22;35673;51.482;7.436;2023-02-15T04:55:58;2.80;92.20
49777;DHT22;35673;51.482;7.436;2023-02-15T04:58:24;2.80;92.30
49777;DHT22;35673;51.482;7.436;2023-02-15T05:00:50;2.70;92.70
49777;DHT22;35673;51.482;7.436;2023-02-15T05:03:15;2.70;92.40
49777;DHT22;35673;51.482;7.436;2023-02-15T05:05:41;2.70;92.60
49777;DHT22;35673;51.482;7.436;2023-02-15T05:08:06;2.70;92.90
49777;DHT22;35673;51.482;7.436;2023-02-15T05:10:32;2.70;92.90
49777;DHT22;35673;51.482;7.436;2023-02-15T05:12:58;2.80;92.90
49777;DHT22;35673;51.482;7.436;2023-02-15T05:15:27;2.80;92.80
49777;DHT22;35673;51.482;7.436;2023-02-15T05:17:53;2.80;92.90
49777;DHT22;35673;51.482;7.436;2023-02-15T05:20:19;2.70;92.70
49777;DHT22;35673;51.482;7.436;2023-02-15T05:22:44;2.70;92.80
49777;DHT22;35673;51.482;7.436;2023-02-15T05:25:10;2.70;93.10
49777;DHT22;35673;51.482;7.436;2023-02-15T05:27:54;2.70;93.40
49777;DHT22;35673;51.482;7.436;2023-02-15T05:30:38;2.70;93.10
49777;DHT22;35673;51.482;7.436;2023-02-15T05:33:05;2.70;93.20
49777;DHT22;35673;51.482;7.436;2023-02-15T05:35:31;2.60;93.40
49777;DHT22;35673;51.482;7.436;2023-02-15T05:37:56;2.60;93.30
49777;DHT22;35673;51.482;7.436;2023-02-15T05:40:22;2.60;93.10
49777;DHT22;35673;51.482;7.436;2023-02-15T05:42:48;2.60;93.40
49777;DHT22;35673;51.482;7.436;2023-02-15T05:45:13;2.60;93.50
49777;DHT22;35673;51.482;7.436;2023-02-15T05:47:39;2.60;93.60
49777;DHT22;35673;51.482;7.436;2023-02-15T05:50:04;2.60;93.40
49777;DHT22;35673;51.482;7.436;2023-02-15T05:52:30;2.60;93.60
49777;DHT22;35673;51.482;7.436;2023-02-15T05:54:56;2.60;93.60
49777;DHT22;35673;51.482;7.436;2023-02-15T05:57:21;2.60;93.40
49777;DHT22;35673;51.482;7.436;2023-02-15T05:59:47;2.60;93.60
49777;DHT22;35673;51.482;7.436;2023-02-15T06:02:12;2.60;93.70
49777;DHT22;35673;51.482;7.436;2023-02-15T06:04:38;2.50;93.20
49777;DHT22;35673;51.482;7.436;2023-02-15T06:07:03;2.50;93.90
49777;DHT22;35673;51.482;7.436;2023-02-15T06:09:29;2.50;93.90
49777;DHT22;35673;51.482;7.436;2023-02-15T06:11:54;2.50;94.90
49777;DHT22;35673;51.482;7.436;2023-02-15T06:14:20;2.50;94.50
49777;DHT22;35673;51.482;7.436;2023-02-15T06:16:46;2.50;94.30
49777;DHT22;35673;51.482;7.436;2023-02-15T06:19:11;2.50;94.40
49777;DHT22;35673;51.482;7.436;2023-02-15T06:21:37;2.50;94.50
49777;DHT22;35673;51.482;7.436;2023-02-15T06:24:02;2.50;94.40
49777;DHT22;35673;51.482;7.436;2023-02-15T06:26:28;2.50;94.50
49777;DHT22;35673;51.482;7.436;2023-02-15T06:28:53;2.50;94.70
49777;DHT22;35673;51.482;7.436;2023-02-15T06:31:19;2.50;94.40
49777;DHT22;35673;51.482;7.436;2023-02-15T06:33:45;2.50;94.60
49777;DHT22;35673;51.482;7.436;2023-02-15T06:36:10;2.50;94.60
49777;DHT22;35673;51.482;7.436;2023-02-15T06:38:36;2.50;94.20
49777;DHT22;35673;51.482;7.436;2023-02-15T06:41:01;2.50;94.20
49777;DHT22;35673;51.482;7.436;2023-02-15T06:43:27;2.40;94.80
49777;DHT22;35673;51.482;7.436;2023-02-15T06:45:53;2.40;94.90
49777;DHT22;35673;51.482;7.436;2023-02-15T06:48:18;2.50;95.10
49777;DHT22;35673;51.482;7.436;2023-02-15T06:50:44;2.50;95.60
49777;DHT22;35673;51.482;7.436;2023-02-15T06:53:09;2.50;95.90
49777;DHT22;35673;51.482;7.436;2023-02-15T06:55:35;2.50;95.90
49777;DHT22;35673;51.482;7.436;2023-02-15T06:58:01;2.60;95.80
49777;DHT22;35673;51.482;7.436;2023-02-15T07:00:26;2.60;94.90
49777;DHT22;35673;51.482;7.436;2023-02-15T07:02:55;2.60;95.40
49777;DHT22;35673;51.482;7.436;2023-02-15T07:05:21;2.50;95.50
49777;DHT22;35673;51.482;7.436;2023-02-15T07:07:47;2.50;95.00
49777;DHT22;35673;51.482;7.436;2023-02-15T07:10:12;2.50;94.80
49777;DHT22;35673;51.482;7.436;2023-02-15T07:12:38;2.50;95.00
49777;DHT22;35673;51.482;7.436;2023-02-15T07:15:07;2.50;94.90
49777;DHT22;35673;51.482;7.436;2023-02-15T07:17:34;2.60;95.00
49777;DHT22;35673;51.482;7.436;2023-02-15T07:20:00;2.60;95.00
49777;DHT22;35673;51.482;7.436;2023-02-15T07:22:25;2.60;94.70
49777;DHT22;35673;51.482;7.436;2023-02-15T07:24:51;2.60;94.80
49777;DHT22;35673;51.482;7.436;2023-02-15T07:27:20;2.70;94.90
49777;DHT22;35673;51.482;7.436;2023-02-15T07:29:45;2.70;94.90
49777;DHT22;35673;51.482;7.436;2023-02-15T07:32:11;2.70;94.70
49777;DHT22;35673;51.482;7.436;2023-02-15T07:34:36;2.80;95.00
49777;DHT22;35673;51.482;7.436;2023-02-15T07:37:02;2.80;94.80
49777;DHT22;35673;51.482;7.436;2023-02-15T07:39:27;2.90;94.80
49777;DHT22;35673;51.482;7.436;2023-02-15T07:41:53;3.00;94.60
49777;DHT22;35673;51.482;7.436;2023-02-15T07:44:18;3.10;94.90
49777;DHT22;35673;51.482;7.436;2023-02-15T07:46:44;3.10;94.80
49777;DHT22;35673;51.482;7.436;2023-02-15T07:49:09;3.20;94.50
49777;DHT22;35673;51.482;7.436;2023-02-15T07:51:35;3.30;94.80
49777;DHT22;35673;51.482;7.436;2023-02-15T07:54:01;3.40;94.60
49777;DHT22;35673;51.482;7.436;2023-02-15T07:56:26;3.50;94.20
49777;DHT22;35673;51.482;7.436;2023-02-15T07:58:52;3.70;94.50
49777;DHT22;35673;51.482;7.436;2023-02-15T08:03:46;4.00;93.60
49777;DHT22;35673;51.482;7.436;2023-02-15T08:06:11;4.20;92.70
49777;DHT22;35673;51.482;7.436;2023-02-15T08:08:38;4.30;92.40
49777;DHT22;35673;51.482;7.436;2023-02-15T08:11:05;4.50;92.10
49777;DHT22;35673;51.482;7.436;2023-02-15T08:13:50;4.70;91.80
49777;DHT22;35673;51.482;7.436;2023-02-15T08:16:32;5.00;90.70
49777;DHT22;35673;51.482;7.436;2023-02-15T08:18:59;5.20;90.30
49777;DHT22;35673;51.482;7.436;2023-02-15T08:21:26;5.40;89.70
49777;DHT22;35673;51.482;7.436;2023-02-15T08:23:52;5.60;89.30
49777;DHT22;35673;51.482;7.436;2023-02-15T08:26:18;5.80;89.00
49777;DHT22;35673;51.482;7.436;2023-02-15T08:28:44;6.00;88.30
49777;DHT22;35673;51.482;7.436;2023-02-15T08:31:10;6.20;87.30
49777;DHT22;35673;51.482;7.436;2023-02-15T08:33:37;6.40;86.80
49777;DHT22;35673;51.482;7.436;2023-02-15T08:36:07;6.60;86.70
49777;DHT22;35673;51.482;7.436;2023-02-15T08:38:33;6.80;86.10
49777;DHT22;35673;51.482;7.436;2023-02-15T08:41:16;7.10;85.30
49777;DHT22;35673;51.482;7.436;2023-02-15T08:43:42;7.20;84.70
49777;DHT22;35673;51.482;7.436;2023-02-15T08:46:08;7.50;84.50
49777;DHT22;35673;51.482;7.436;2023-02-15T08:48:34;7.70;83.60
49777;DHT22;35673;51.482;7.436;2023-02-15T08:51:04;7.90;82.90
49777;DHT22;35673;51.482;7.436;2023-02-15T08:53:29;8.00;82.10
49777;DHT22;35673;51.482;7.436;2023-02-15T08:55:55;8.00;81.70
49777;DHT22;35673;51.482;7.436;2023-02-15T08:58:21;8.00;81.80
49777;DHT22;35673;51.482;7.436;2023-02-15T09:00:47;8.10;81.70
49777;DHT22;35673;51.482;7.436;2023-02-15T09:03:12;8.40;81.50
49777;DHT22;35673;51.482;7.436;2023-02-15T09:05:38;8.60;80.80
49777;DHT22;35673;51.482;7.436;2023-02-15T09:08:03;8.80;80.20
49777;DHT22;35673;51.482;7.436;2023-02-15T09:10:29;9.00;79.40
49777;DHT22;35673;51.482;7.436;2023-02-15T09:12:54;9.10;77.90
49777;DHT22;35673;51.482;7.436;2023-02-15T09:15:20;9.20;76.80
49777;DHT22;35673;51.482;7.436;2023-02-15T09:17:45;9.30;77.40
49777;DHT22;35673;51.482;7.436;2023-02-15T09:20:11;9.50;76.60
49777;DHT22;35673;51.482;7.436;2023-02-15T09:22:37;9.80;76.10
49777;DHT22;35673;51.482;7.436;2023-02-15T09:25:02;10.00;75.10
49777;DHT22;35673;51.482;7.436;2023-02-15T09:27:29;10.20;74.80
49777;DHT22;35673;51.482;7.436;2023-02-15T09:29:54;10.60;74.00
49777;DHT22;35673;51.482;7.436;2023-02-15T09:32:20;10.90;73.10
49777;DHT22;35673;51.482;7.436;2023-02-15T09:34:45;11.10;73.50
49777;DHT22;35673;51.482;7.436;2023-02-15T09:37:11;11.20;72.00
49777;DHT22;35673;51.482;7.436;2023-02-15T09:39:37;11.30;71.40
49777;DHT22;35673;51.482;7.436;2023-02-15T09:42:16;11.60;70.90
49777;DHT22;35673;51.482;7.436;2023-02-15T10:00:00;12.30;68.40
49777;DHT22;35673;51.482;7.436;2023-02-15T10:02:32;12.60;67.60
49777;DHT22;35673;51.482;7.436;2023-02-15T10:15:36;13.00;65.30
49777;DHT22;35673;51.482;7.436;2023-02-15T10:26:18;12.90;65.30
49777;DHT22;35673;51.482;7.436;2023-02-15T10:28:57;12.80;65.50
49777;DHT22;35673;51.482;7.436;2023-02-15T10:34:14;13.00;65.30
49777;DHT22;35673;51.482;7.436;2023-02-15T10:44:41;14.30;62.90
49777;DHT22;35673;51.482;7.436;2023-02-15T10:55:30;16.30;59.40
49777;DHT22;35673;51.482;7.436;2023-02-15T11:07:40;15.30;60.10
49777;DHT22;35673;51.482;7.436;2023-02-15T11:12:38;15.00;60.60
49777;DHT22;35673;51.482;7.436;2023-02-15T11:15:15;14.80;60.50
49777;DHT22;35673;51.482;7.436;2023-02-15T11:17:43;14.60;61.60
49777;DHT22;35673;51.482;7.436;2023-02-15T11:20:24;14.50;61.10
49777;DHT22;35673;51.482;7.436;2023-02-15T11:22:51;14.60;61.50
49777;DHT22;35673;51.482;7.436;2023-02-15T11:25:25;14.70;61.30
49777;DHT22;35673;51.482;7.436;2023-02-15T11:27:53;14.80;61.70
49777;DHT22;35673;51.482;7.436;2023-02-15T11:30:21;15.00;60.60
49777;DHT22;35673;51.482;7.436;2023-02-15T11:32:47;15.60;61.20
49777;DHT22;35673;51.482;7.436;2023-02-15T11:37:41;16.20;59.40
49777;DHT22;35673;51.482;7.436;2023-02-15T11:40:15;15.90;59.20
49777;DHT22;35673;51.482;7.436;2023-02-15T11:42:42;15.50;60.70
49777;DHT22;35673;51.482;7.436;2023-02-15T11:45:17;15.40;60.60
49777;DHT22;35673;51.482;7.436;2023-02-15T11:47:43;15.40;61.20
49777;DHT22;35673;51.482;7.436;2023-02-15T11:50:12;15.60;60.20
49777;DHT22;35673;51.482;7.436;2023-02-15T11:52:38;15.90;59.00
49777;DHT22;35673;51.482;7.436;2023-02-15T11:55:09;16.30;58.60
49777;DHT22;35673;51.482;7.436;2023-02-15T11:57:38;16.80;58.70
49777;DHT22;35673;51.482;7.436;2023-02-15T12:00:16;16.90;58.40
49777;DHT22;35673;51.482;7.436;2023-02-15T12:02:46;16.70;56.60
49777;DHT22;35673;51.482;7.436;2023-02-15T12:05:17;16.70;56.90
49777;DHT22;35673;51.482;7.436;2023-02-15T12:07:46;16.70;60.20
49777;DHT22;35673;51.482;7.436;2023-02-15T12:10:29;16.40;59.20
49777;DHT22;35673;51.482;7.436;2023-02-15T12:13:15;16.20;57.60
49777;DHT22;35673;51.482;7.436;2023-02-15T12:15:42;16.90;57.20
49777;DHT22;35673;51.482;7.436;2023-02-15T12:20:53;17.40;55.20
49777;DHT22;35673;51.482;7.436;2023-02-15T12:23:23;17.60;55.90
49777;DHT22;35673;51.482;7.436;2023-02-15T12:25:50;18.00;55.20
49777;DHT22;35673;51.482;7.436;2023-02-15T12:28:24;17.80;55.20
49777;DHT22;35673;51.482;7.436;2023-02-15T12:30:50;17.70;56.00
49777;DHT22;35673;51.482;7.436;2023-02-15T12:38:42;19.30;54.70
49777;DHT22;35673;51.482;7.436;2023-02-15T12:41:23;19.90;54.80
49777;DHT22;35673;51.482;7.436;2023-02-15T12:44:35;20.00;52.80
49777;DHT22;35673;51.482;7.436;2023-02-15T12:46:35;19.70;51.80
49777;DHT22;35673;51.482;7.436;2023-02-15T12:49:05;20.20;51.80
49777;DHT22;35673;51.482;7.436;2023-02-15T12:51:31;20.30;51.40
49777;DHT22;35673;51.482;7.436;2023-02-15T12:56:47;20.40;51.90
49777;DHT22;35673;51.482;7.436;2023-02-15T12:59:14;20.30;49.40
49777;DHT22;35673;51.482;7.436;2023-02-15T13:01:45;20.70;52.00
49777;DHT22;35673;51.482;7.436;2023-02-15T13:04:27;21.70;50.20
49777;DHT22;35673;51.482;7.436;2023-02-15T13:06:57;22.00;45.20
49777;DHT22;35673;51.482;7.436;2023-02-15T13:09:26;22.10;48.60
49777;DHT22;35673;51.482;7.436;2023-02-15T13:14:57;21.50;48.10
49777;DHT22;35673;51.482;7.436;2023-02-15T13:17:32;22.00;49.30
49777;DHT22;35673;51.482;7.436;2023-02-15T13:20:06;21.10;47.50
49777;DHT22;35673;51.482;7.436;2023-02-15T13:22:38;20.50;48.10
49777;DHT22;35673;51.482;7.436;2023-02-15T13:25:14;20.40;51.30
49777;DHT22;35673;51.482;7.436;2023-02-15T13:27:42;20.00;50.50
49777;DHT22;35673;51.482;7.436;2023-02-15T13:32:44;19.80;54.50
49777;DHT22;35673;51.482;7.436;2023-02-15T13:35:13;20.20;51.50
49777;DHT22;35673;51.482;7.436;2023-02-15T13:59:06;21.50;49.40
49777;DHT22;35673;51.482;7.436;2023-02-15T14:01:56;20.80;54.40
49777;DHT22;35673;51.482;7.436;2023-02-15T14:07:12;20.70;49.40
49777;DHT22;35673;51.482;7.436;2023-02-15T14:22:56;23.30;47.00
49777;DHT22;35673;51.482;7.436;2023-02-15T14:25:30;24.30;46.00
49777;DHT22;35673;51.482;7.436;2023-02-15T14:28:04;24.90;45.20
49777;DHT22;35673;51.482;7.436;2023-02-15T14:30:41;25.20;43.60
49777;DHT22;35673;51.482;7.436;2023-02-15T14:35:34;24.30;45.10
49777;DHT22;35673;51.482;7.436;2023-02-15T14:38:10;24.20;47.50
49777;DHT22;35673;51.482;7.436;2023-02-15T14:46:28;26.30;43.30
49777;DHT22;35673;51.482;7.436;2023-02-15T14:48:56;27.10;44.10
49777;DHT22;35673;51.482;7.436;2023-02-15T14:54:52;27.40;48.90
49777;DHT22;35673;51.482;7.436;2023-02-15T14:59:23;26.80;46.10
49777;DHT22;35673;51.482;7.436;2023-02-15T15:01:55;26.20;45.20
49777;DHT22;35673;51.482;7.436;2023-02-15T15:04:26;25.80;44.60
49777;DHT22;35673;51.482;7.436;2023-02-15T15:09:37;24.60;44.50
49777;DHT22;35673;51.482;7.436;2023-02-15T15:12:13;23.90;46.40
49777;DHT22;35673;51.482;7.436;2023-02-15T15:14:41;23.10;46.80
49777;DHT22;35673;51.482;7.436;2023-02-15T15:17:09;22.50;47.00
49777;DHT22;35673;51.482;7.436;2023-02-15T15:20:19;22.10;48.20
49777;DHT22;35673;51.482;7.436;2023-02-15T15:22:25;21.60;47.60
49777;DHT22;35673;51.482;7.436;2023-02-15T15:24:52;21.20;48.00
49777;DHT22;35673;51.482;7.436;2023-02-15T15:30:19;20.90;53.30
49777;DHT22;35673;51.482;7.436;2023-02-15T15:45:39;19.00;57.20
49777;DHT22;35673;51.482;7.436;2023-02-15T15:50:54;18.20;56.70
49777;DHT22;35673;51.482;7.436;2023-02-15T15:53:25;18.00;56.40
49777;DHT22;35673;51.482;7.436;2023-02-15T15:55:52;17.90;56.80
49777;DHT22;35673;51.482;7.436;2023-02-15T15:58:20;17.80;56.20
49777;DHT22;35673;51.482;7.436;2023-02-15T16:00:47;17.50;56.10
49777;DHT22;35673;51.482;7.436;2023-02-15T16:03:21;17.30;56.70
49777;DHT22;35673;51.482;7.436;2023-02-15T16:05:47;17.00;57.20
49777;DHT22;35673;51.482;7.436;2023-02-15T16:10:55;16.80;57.20
49777;DHT22;35673;51.482;7.436;2023-02-15T16:13:21;16.60;57.90
49777;DHT22;35673;51.482;7.436;2023-02-15T16:15:47;16.30;57.90
49777;DHT22;35673;51.482;7.436;2023-02-15T16:18:18;16.20;58.30
49777;DHT22;35673;51.482;7.436;2023-02-15T16:20:48;16.10;58.10
49777;DHT22;35673;51.482;7.436;2023-02-15T16:28:15;15.70;58.50
49777;DHT22;35673;51.482;7.436;2023-02-15T16:30:44;15.70;58.50
49777;DHT22;35673;51.482;7.436;2023-02-15T16:33:10;15.50;59.10
49777;DHT22;35673;51.482;7.436;2023-02-15T16:35:40;15.30;59.40
49777;DHT22;35673;51.482;7.436;2023-02-15T16:38:08;15.30;59.80
49777;DHT22;35673;51.482;7.436;2023-02-15T16:40:41;15.20;60.00
49777;DHT22;35673;51.482;7.436;2023-02-15T16:43:13;15.00;60.10
49777;DHT22;35673;51.482;7.436;2023-02-15T16:45:40;14.90;60.40
49777;DHT22;35673;51.482;7.436;2023-02-15T16:48:07;14.80;60.80
49777;DHT22;35673;51.482;7.436;2023-02-15T16:50:36;14.70;60.50
49777;DHT22;35673;51.482;7.436;2023-02-15T16:53:03;14.50;61.10
49777;DHT22;35673;51.482;7.436;2023-02-15T16:55:32;14.50;61.10
49777;DHT22;35673;51.482;7.436;2023-02-15T16:58:00;14.30;61.30
49777;DHT22;35673;51.482;7.436;2023-02-15T17:00:34;14.30;61.60
49777;DHT22;35673;51.482;7.436;2023-02-15T17:03:02;14.30;61.90
49777;DHT22;35673;51.482;7.436;2023-02-15T17:05:32;14.20;62.00
49777;DHT22;35673;51.482;7.436;2023-02-15T17:10:31;14.00;62.30
49777;DHT22;35673;51.482;7.436;2023-02-15T17:13:00;14.00;62.40
49777;DHT22;35673;51.482;7.436;2023-02-15T17:18:17;13.80;63.10
49777;DHT22;35673;51.482;7.436;2023-02-15T17:20:44;13.60;63.30
49777;DHT22;35673;51.482;7.436;2023-02-15T17:23:31;13.70;63.50
49777;DHT22;35673;51.482;7.436;2023-02-15T17:25:58;13.60;63.80
49777;DHT22;35673;51.482;7.436;2023-02-15T17:28:24;13.50;64.00
49777;DHT22;35673;51.482;7.436;2023-02-15T17:30:50;13.50;64.30
49777;DHT22;35673;51.482;7.436;2023-02-15T17:33:19;13.40;64.50
49777;DHT22;35673;51.482;7.436;2023-02-15T17:35:44;13.40;64.80
49777;DHT22;35673;51.482;7.436;2023-02-15T17:38:26;13.30;65.00
49777;DHT22;35673;51.482;7.436;2023-02-15T17:40:52;13.20;65.40
49777;DHT22;35673;51.482;7.436;2023-02-15T17:43:17;13.20;65.70
49777;DHT22;35673;51.482;7.436;2023-02-15T17:45:49;13.10;65.70
49777;DHT22;35673;51.482;7.436;2023-02-15T17:48:22;13.30;66.00
49777;DHT22;35673;51.482;7.436;2023-02-15T17:50:49;13.10;65.50
49777;DHT22;35673;51.482;7.436;2023-02-15T17:53:18;13.20;65.30
49777;DHT22;35673;51.482;7.436;2023-02-15T17:55:44;12.90;65.60
49777;DHT22;35673;51.482;7.436;2023-02-15T17:58:11;13.10;65.90
49777;DHT22;35673;51.482;7.436;2023-02-15T18:00:46;12.90;65.60
49777;DHT22;35673;51.482;7.436;2023-02-15T18:06:18;12.80;65.50
49777;DHT22;35673;51.482;7.436;2023-02-15T18:09:02;12.60;65.20
49777;DHT22;35673;51.482;7.436;2023-02-15T18:11:47;12.60;65.30
49777;DHT22;35673;51.482;7.436;2023-02-15T18:14:14;12.50;65.00
49777;DHT22;35673;51.482;7.436;2023-02-15T18:16:41;12.50;65.10
49777;DHT22;35673;51.482;7.436;2023-02-15T18:19:14;12.40;65.10
49777;DHT22;35673;51.482;7.436;2023-02-15T18:21:41;12.40;65.00
49777;DHT22;35673;51.482;7.436;2023-02-15T18:24:12;12.20;65.60
49777;DHT22;35673;51.482;7.436;2023-02-15T18:26:38;12.10;65.30
49777;DHT22;35673;51.482;7.436;2023-02-15T18:29:03;12.10;65.60
49777;DHT22;35673;51.482;7.436;2023-02-15T18:31:29;12.00;66.60
49777;DHT22;35673;51.482;7.436;2023-02-15T18:33:56;11.80;66.50
49777;DHT22;35673;51.482;7.436;2023-02-15T18:38:48;11.60;66.80
49777;DHT22;35673;51.482;7.436;2023-02-15T18:41:17;11.40;66.90
49777;DHT22;35673;51.482;7.436;2023-02-15T18:43:44;11.30;67.30
49777;DHT22;35673;51.482;7.436;2023-02-15T18:46:09;11.10;68.50
49777;DHT22;35673;51.482;7.436;2023-02-15T18:48:35;11.00;68.50
49777;DHT22;35673;51.482;7.436;2023-02-15T18:51:01;10.90;68.30
49777;DHT22;35673;51.482;7.436;2023-02-15T18:53:26;10.80;67.90
49777;DHT22;35673;51.482;7.436;2023-02-15T18:55:52;10.70;68.00
49777;DHT22;35673;51.482;7.436;2023-02-15T18:58:19;10.70;68.10
49777;DHT22;35673;51.482;7.436;2023-02-15T19:00:46;10.80;68.10
49777;DHT22;35673;51.482;7.436;2023-02-15T19:03:12;10.70;68.10
49777;DHT22;35673;51.482;7.436;2023-02-15T19:05:39;10.70;68.40
49777;DHT22;35673;51.482;7.436;2023-02-15T19:08:05;10.60;68.30
49777;DHT22;35673;51.482;7.436;2023-02-15T19:10:37;10.60;68.20
49777;DHT22;35673;51.482;7.436;2023-02-15T19:13:02;10.60;68.10
49777;DHT22;35673;51.482;7.436;2023-02-15T19:15:29;10.60;68.10
49777;DHT22;35673;51.482;7.436;2023-02-15T19:17:55;10.60;68.20
49777;DHT22;35673;51.482;7.436;2023-02-15T19:20:28;10.50;68.10